createdAt,value
2022-11-19T00:00:49.719Z,94569.9
2022-11-19T00:01:52.077Z,94568.1
2022-11-19T00:02:54.649Z,94567.5
2022-11-19T00:03:56.871Z,94564.3
2022-11-19T00:04:58.849Z,94569.1
2022-11-19T00:06:01.359Z,94570.4
2022-11-19T00:07:03.793Z,94565.1
2022-11-19T00:08:06.102Z,94565.1
2022-11-19T00:09:08.022Z,94561.5
2022-11-19T00:10:10.238Z,94558.3
2022-11-19T00:11:12.727Z,94560.7
2022-11-19T00:12:15.213Z,94557.1
2022-11-19T00:13:17.786Z,94555.5
2022-11-19T00:14:20.284Z,94552.4
2022-11-19T00:15:22.482Z,94551.5
2022-11-19T00:16:24.965Z,94549.1
2022-11-19T00:17:27.443Z,94553.9
2022-11-19T00:18:29.367Z,94548.9
2022-11-19T00:19:31.559Z,94552.6
2022-11-19T00:20:34.100Z,94548.2
2022-11-19T00:21:36.740Z,94550.9
2022-11-19T00:22:38.687Z,94547
2022-11-19T00:23:40.867Z,94548.6
2022-11-19T00:24:42.813Z,94544.9
2022-11-19T00:25:45.006Z,94544.4
2022-11-19T00:26:47.518Z,94544.8
2022-11-19T00:27:49.994Z,94549
2022-11-19T00:28:52.474Z,94551.2
2022-11-19T00:29:54.952Z,94545.9
2022-11-19T00:30:56.872Z,94546.5
2022-11-19T00:31:59.068Z,94549.1
2022-11-19T00:33:01.550Z,94547.4
2022-11-19T00:34:04.022Z,94550.9
2022-11-19T00:35:06.230Z,94547
2022-11-19T00:36:08.784Z,94544.5
2022-11-19T00:37:11.011Z,94545.3
2022-11-19T00:38:13.208Z,94545.7
2022-11-19T00:39:15.121Z,94548.4
2022-11-19T00:40:17.598Z,94550.5
2022-11-19T00:41:20.067Z,94554.2
2022-11-19T00:42:22.036Z,94550.3
2022-11-19T00:43:24.501Z,94551.7
2022-11-19T00:44:27.007Z,94553
2022-11-19T00:45:33.669Z,94550.1
2022-11-19T00:46:36.007Z,94551.1
2022-11-19T00:47:38.516Z,94551.3
2022-11-19T00:48:40.745Z,94554.5
2022-11-19T00:49:42.944Z,94552.7
2022-11-19T00:50:45.425Z,94552.1
2022-11-19T00:51:47.993Z,94550.8
2022-11-19T00:52:49.736Z,94550.3
2022-11-19T00:53:51.942Z,94553.5
2022-11-19T00:54:54.448Z,94553.2
2022-11-19T00:55:56.918Z,94550.8
2022-11-19T00:56:59.124Z,94550.6
2022-11-19T00:58:01.356Z,94550.5
2022-11-19T00:59:03.857Z,94550.3
2022-11-19T01:00:05.779Z,94550.5
2022-11-19T01:01:08.269Z,94551.3
2022-11-19T01:02:10.849Z,94555.4
2022-11-19T01:03:13.335Z,94549.2
2022-11-19T01:04:15.806Z,94551.3
2022-11-19T01:05:18.289Z,94552.1
2022-11-19T01:06:21.238Z,94549.2
2022-11-19T01:07:23.986Z,94548.6
2022-11-19T01:08:26.343Z,94548.3
2022-11-19T01:09:28.828Z,94551.1
2022-11-19T01:10:31.292Z,94551.4
2022-11-19T01:11:33.778Z,94555.5
2022-11-19T01:12:36.075Z,94557.3
2022-11-19T01:13:38.574Z,94559.5
2022-11-19T01:14:40.765Z,94559.1
2022-11-19T01:15:42.967Z,94559
2022-11-19T01:16:45.463Z,94562.1
2022-11-19T01:17:47.958Z,94564.3
2022-11-19T01:18:50.147Z,94561.3
2022-11-19T01:19:52.636Z,94561.2
2022-11-19T01:20:55.149Z,94564.6
2022-11-19T01:21:57.652Z,94559.5
2022-11-19T01:23:00.190Z,94561.1
2022-11-19T01:24:02.425Z,94562.6
2022-11-19T01:25:04.624Z,94561.6
2022-11-19T01:26:06.832Z,94560.1
2022-11-19T01:27:09.295Z,94560.4
2022-11-19T01:28:11.776Z,94562.5
2022-11-19T01:29:14.010Z,94566.5
2022-11-19T01:30:16.511Z,94560.5
2022-11-19T01:31:18.999Z,94563
2022-11-19T01:32:21.230Z,94559.7
2022-11-19T01:33:22.996Z,94564.5
2022-11-19T01:34:25.200Z,94557.3
2022-11-19T01:35:27.678Z,94563.9
2022-11-19T01:36:30.181Z,94564
2022-11-19T01:37:32.411Z,94568.9
2022-11-19T01:38:34.689Z,94563.2
2022-11-19T01:39:36.632Z,94563.4
2022-11-19T01:40:38.841Z,94564.2
2022-11-19T01:41:41.325Z,94565
2022-11-19T01:42:43.813Z,94560.5
2022-11-19T01:43:46.286Z,94567.3
2022-11-19T01:44:48.800Z,94566.5
2022-11-19T01:45:51.005Z,94565.2
2022-11-19T01:46:53.484Z,94564.6
2022-11-19T01:47:55.972Z,94563.8
2022-11-19T01:48:57.887Z,94563.4
2022-11-19T01:50:00.108Z,94567.5
2022-11-19T01:51:02.590Z,94565.2
2022-11-19T01:52:05.088Z,94563.8
2022-11-19T01:53:07.557Z,94570.8
2022-11-19T01:54:10.165Z,94570.9
2022-11-19T01:55:12.370Z,94567.4
2022-11-19T01:56:14.582Z,94567.5
2022-11-19T01:57:16.771Z,94565.4
2022-11-19T01:58:19.880Z,94566.6
2022-11-19T01:59:23.561Z,94566.5
2022-11-19T02:00:26.945Z,94570.9
2022-11-19T02:01:29.541Z,94563
2022-11-19T02:02:32.216Z,94568.9
2022-11-19T02:03:34.693Z,94574.2
2022-11-19T02:04:36.624Z,94564.7
2022-11-19T02:05:38.553Z,94569.2
2022-11-19T02:06:40.754Z,94576.8
2022-11-19T02:07:42.957Z,94570.5
2022-11-19T02:08:45.453Z,94569.8
2022-11-19T02:09:48.023Z,94575
2022-11-19T02:10:50.543Z,94581.2
2022-11-19T02:11:53.011Z,94579.2
2022-11-19T02:12:55.488Z,94573.6
2022-11-19T02:13:57.687Z,94581
2022-11-19T02:15:00.185Z,94574.9
2022-11-19T02:16:02.677Z,94583.8
2022-11-19T02:17:05.160Z,94579.7
2022-11-19T02:18:07.619Z,94581.8
2022-11-19T02:19:10.099Z,94581.5
2022-11-19T02:20:12.293Z,94575.6
2022-11-19T02:21:14.484Z,94583.6
2022-11-19T02:22:16.964Z,94584.2
2022-11-19T02:23:19.445Z,94576.6
2022-11-19T02:24:21.921Z,94576.6
2022-11-19T02:25:24.563Z,94574.5
2022-11-19T02:26:27.048Z,94579.5
2022-11-19T02:27:29.239Z,94582.9
2022-11-19T02:28:31.722Z,94584.2
2022-11-19T02:29:34.195Z,94578.7
2022-11-19T02:30:36.688Z,94577.1
2022-11-19T02:31:39.176Z,94576.7
2022-11-19T02:32:41.107Z,94581.6
2022-11-19T02:33:43.594Z,94584.2
2022-11-19T02:34:46.093Z,94583.5
2022-11-19T02:35:48.589Z,94584.2
2022-11-19T02:36:51.069Z,94583.3
2022-11-19T02:37:53.549Z,94580.2
2022-11-19T02:38:56.038Z,94578.7
2022-11-19T02:39:58.236Z,94577.7
2022-11-19T02:41:00.500Z,94577.2
2022-11-19T02:42:02.992Z,94580.6
2022-11-19T02:43:05.497Z,94581
2022-11-19T02:44:07.677Z,94579.2
2022-11-19T02:45:09.881Z,94577.2
2022-11-19T02:46:12.368Z,94585.5
2022-11-19T02:47:14.860Z,94574.7
2022-11-19T02:48:17.057Z,94589.8
2022-11-19T02:49:20.915Z,94588.8
2022-11-19T02:50:23.526Z,94583.9
2022-11-19T02:51:25.715Z,94579.2
2022-11-19T02:52:28.216Z,94582.7
2022-11-19T02:53:30.694Z,94589.5
2022-11-19T02:54:32.897Z,94585.8
2022-11-19T02:55:35.378Z,94588.3
2022-11-19T02:56:37.924Z,94582.7
2022-11-19T02:57:40.416Z,94585
2022-11-19T02:58:42.886Z,94585.8
2022-11-19T02:59:45.111Z,94586.2
2022-11-19T03:00:46.764Z,94587.7
2022-11-19T03:01:48.923Z,94587.6
2022-11-19T03:02:51.276Z,94591.9
2022-11-19T03:03:53.494Z,94594.7
2022-11-19T03:04:55.417Z,94596.1
2022-11-19T03:05:57.893Z,94593.6
2022-11-19T03:07:00.643Z,94599.2
2022-11-19T03:08:03.174Z,94599.2
2022-11-19T03:09:05.095Z,94594.8
2022-11-19T03:10:07.314Z,94600.2
2022-11-19T03:11:09.513Z,94602.7
2022-11-19T03:12:12.065Z,94597.8
2022-11-19T03:13:14.613Z,94604
2022-11-19T03:14:17.089Z,94602.9
2022-11-19T03:15:19.563Z,94603.7
2022-11-19T03:16:22.055Z,94606.1
2022-11-19T03:17:24.531Z,94606.8
2022-11-19T03:18:27.057Z,94609.7
2022-11-19T03:19:28.987Z,94609.3
2022-11-19T03:20:31.469Z,94607.1
2022-11-19T03:21:33.771Z,94611.3
2022-11-19T03:22:35.686Z,94613.1
2022-11-19T03:23:37.608Z,94612.4
2022-11-19T03:24:40.091Z,94616.2
2022-11-19T03:25:41.730Z,94615.8
2022-11-19T03:26:43.923Z,94616.4
2022-11-19T03:27:46.487Z,94617.5
2022-11-19T03:28:48.716Z,94617.9
2022-11-19T03:29:51.205Z,94619.3
2022-11-19T03:30:53.132Z,94620
2022-11-19T03:31:55.342Z,94616.8
2022-11-19T03:32:57.543Z,94621.5
2022-11-19T03:34:00.114Z,94623.5
2022-11-19T03:35:02.584Z,94620.4
2022-11-19T03:36:04.508Z,94619.6
2022-11-19T03:37:06.420Z,94618.7
2022-11-19T03:38:08.638Z,94617.2
2022-11-19T03:39:10.845Z,94618.4
2022-11-19T03:40:13.329Z,94619.3
2022-11-19T03:41:15.501Z,94620.9
2022-11-19T03:42:17.980Z,94618.5
2022-11-19T03:43:20.625Z,94616.2
2022-11-19T03:44:23.135Z,94618.3
2022-11-19T03:45:25.329Z,94620.4
2022-11-19T03:46:27.533Z,94619.8
2022-11-19T03:47:30.009Z,94621.2
2022-11-19T03:48:32.491Z,94624.2
2022-11-19T03:49:34.995Z,94625.1
2022-11-19T03:50:37.486Z,94618.9
2022-11-19T03:51:39.960Z,94621.7
2022-11-19T03:52:42.449Z,94622.6
2022-11-19T03:53:44.921Z,94619.4
2022-11-19T03:54:47.140Z,94620.1
2022-11-19T03:55:49.622Z,94624.3
2022-11-19T03:56:51.835Z,94625.6
2022-11-19T03:57:54.302Z,94625
2022-11-19T03:58:56.874Z,94624.2
2022-11-19T03:59:59.393Z,94623.1
2022-11-19T04:01:01.932Z,94622.1
2022-11-19T04:02:04.642Z,94618.6
2022-11-19T04:03:07.182Z,94620.3
2022-11-19T04:04:09.664Z,94618.6
2022-11-19T04:05:12.193Z,94614
2022-11-19T04:06:14.097Z,94618.2
2022-11-19T04:07:16.589Z,94617.7
2022-11-19T04:08:18.840Z,94620.7
2022-11-19T04:09:22.742Z,94619.6
2022-11-19T04:10:25.244Z,94622.9
2022-11-19T04:12:28.209Z,94622.7
2022-11-19T04:13:30.698Z,94626.3
2022-11-19T04:14:33.252Z,94630.5
2022-11-19T04:15:35.747Z,94625.1
2022-11-19T04:16:37.976Z,94623.6
2022-11-19T04:17:40.491Z,94624.5
2022-11-19T04:18:42.409Z,94630.5
2022-11-19T04:19:44.912Z,94628.2
2022-11-19T04:20:47.154Z,94629.3
2022-11-19T04:21:49.348Z,94633.7
2022-11-19T04:22:51.848Z,94632.8
2022-11-19T04:23:54.315Z,94635.1
2022-11-19T04:24:56.233Z,94633.4
2022-11-19T04:25:58.703Z,94631.2
2022-11-19T04:27:00.926Z,94631.1
2022-11-19T04:28:03.419Z,94630.1
2022-11-19T04:29:05.905Z,94625.4
2022-11-19T04:30:08.451Z,94630.1
2022-11-19T04:32:15.666Z,94629.5
2022-11-19T04:33:18.163Z,94629.2
2022-11-19T04:34:20.633Z,94626
2022-11-19T04:35:22.879Z,94624.2
2022-11-19T04:36:25.375Z,94628.5
2022-11-19T04:37:27.871Z,94631.1
2022-11-19T04:38:30.065Z,94627
2022-11-19T04:39:32.554Z,94627.6
2022-11-19T04:40:35.027Z,94630.5
2022-11-19T04:41:37.506Z,94629
2022-11-19T04:42:39.990Z,94628.8
2022-11-19T04:43:42.190Z,94628
2022-11-19T04:44:44.661Z,94631.8
2022-11-19T04:45:47.230Z,94627.5
2022-11-19T04:46:49.719Z,94628.6
2022-11-19T04:47:52.198Z,94628.6
2022-11-19T04:48:54.396Z,94629.5
2022-11-19T04:49:56.593Z,94631.8
2022-11-19T04:50:59.080Z,94631.9
2022-11-19T04:52:01.278Z,94631.3
2022-11-19T04:53:03.480Z,94627.9
2022-11-19T04:54:05.964Z,94628.6
2022-11-19T04:55:08.440Z,94632.2
2022-11-19T04:56:10.618Z,94636.6
2022-11-19T04:57:12.809Z,94635.7
2022-11-19T04:58:15.394Z,94637.8
2022-11-19T04:59:18.914Z,94638.3
2022-11-19T05:00:22.094Z,94641.5
2022-11-19T05:01:25.057Z,94640.5
2022-11-19T05:02:27.658Z,94642.2
2022-11-19T05:03:30.131Z,94645.4
2022-11-19T05:04:32.619Z,94642.7
2022-11-19T05:05:34.802Z,94644.3
2022-11-19T05:06:36.984Z,94644.2
2022-11-19T05:07:39.863Z,94647.8
2022-11-19T05:08:42.496Z,94646.1
2022-11-19T05:09:44.965Z,94650.5
2022-11-19T05:10:47.451Z,94650.5
2022-11-19T05:11:49.928Z,94649.3
2022-11-19T05:12:51.586Z,94653.8
2022-11-19T05:13:54.052Z,94650.8
2022-11-19T05:14:56.543Z,94656.4
2022-11-19T05:15:58.436Z,94651.7
2022-11-19T05:17:00.973Z,94652.7
2022-11-19T05:18:03.212Z,94652.5
2022-11-19T05:19:05.136Z,94653.9
2022-11-19T05:20:07.624Z,94658.9
2022-11-19T05:21:10.109Z,94657.7
2022-11-19T05:22:12.311Z,94659.9
2022-11-19T05:23:14.838Z,94657.6
2022-11-19T05:24:17.035Z,94660.9
2022-11-19T05:25:19.251Z,94659.8
2022-11-19T05:26:21.732Z,94657.9
2022-11-19T05:27:24.250Z,94657.3
2022-11-19T05:29:31.737Z,94661.2
2022-11-19T05:30:34.258Z,94659.2
2022-11-19T05:31:36.184Z,94661.7
2022-11-19T05:32:38.766Z,94661.3
2022-11-19T05:33:40.979Z,94659.1
2022-11-19T05:34:42.913Z,94664.1
2022-11-19T05:35:45.392Z,94658.6
2022-11-19T05:36:47.600Z,94662.3
2022-11-19T05:37:49.796Z,94661.4
2022-11-19T05:38:52.295Z,94663.1
2022-11-19T05:39:54.473Z,94661.5
2022-11-19T05:40:56.981Z,94663.5
2022-11-19T05:41:59.464Z,94661.9
2022-11-19T05:43:01.940Z,94659.8
2022-11-19T05:44:03.860Z,94654.2
2022-11-19T05:45:06.346Z,94659.6
2022-11-19T05:46:08.816Z,94661.6
2022-11-19T05:47:11.300Z,94653.7
2022-11-19T05:48:13.627Z,94655.9
2022-11-19T05:49:16.131Z,94653.5
2022-11-19T05:50:18.885Z,94651.9
2022-11-19T05:51:20.530Z,94653.4
2022-11-19T05:52:23.003Z,94658.3
2022-11-19T05:53:25.480Z,94656.3
2022-11-19T05:54:28.058Z,94655.9
2022-11-19T05:55:30.393Z,94655.8
2022-11-19T05:56:32.861Z,94652.1
2022-11-19T05:57:35.051Z,94651
2022-11-19T05:58:37.660Z,94652
2022-11-19T06:00:44.856Z,94650.5
2022-11-19T06:01:47.341Z,94653.3
2022-11-19T06:02:50.043Z,94652.6
2022-11-19T06:03:52.668Z,94656
2022-11-19T06:04:55.163Z,94653.8
2022-11-19T06:05:57.642Z,94654.2
2022-11-19T06:06:59.863Z,94652
2022-11-19T06:08:02.165Z,94658
2022-11-19T06:09:04.346Z,94657.9
2022-11-19T06:10:06.593Z,94659.1
2022-11-19T06:11:08.798Z,94658.2
2022-11-19T06:12:11.016Z,94658.3
2022-11-19T06:13:13.214Z,94657.2
2022-11-19T06:14:15.400Z,94657.7
2022-11-19T06:15:17.592Z,94658.9
2022-11-19T06:16:20.084Z,94660
2022-11-19T06:17:22.024Z,94657.1
2022-11-19T06:18:23.956Z,94659
2022-11-19T06:19:26.262Z,94656.2
2022-11-19T06:20:28.761Z,94651.7
2022-11-19T06:21:31.319Z,94651
2022-11-19T06:22:33.531Z,94654.3
2022-11-19T06:23:36.019Z,94658.2
2022-11-19T06:24:38.501Z,94659.4
2022-11-19T06:25:41.000Z,94654.9
2022-11-19T06:26:43.479Z,94659
2022-11-19T06:27:45.951Z,94658.5
2022-11-19T06:28:48.445Z,94664.6
2022-11-19T06:30:55.916Z,94662.4
2022-11-19T06:31:57.849Z,94656.5
2022-11-19T06:33:00.046Z,94662.9
2022-11-19T06:34:02.576Z,94660.1
2022-11-19T06:35:05.115Z,94661.4
2022-11-19T06:36:07.613Z,94665
2022-11-19T06:37:10.471Z,94664.3
2022-11-19T06:38:12.881Z,94664.5
2022-11-19T06:39:15.445Z,94663.1
2022-11-19T06:40:17.658Z,94666.3
2022-11-19T06:41:19.875Z,94665.5
2022-11-19T06:42:22.371Z,94668
2022-11-19T06:43:24.835Z,94662.5
2022-11-19T06:44:27.318Z,94665.3
2022-11-19T06:45:29.791Z,94660.3
2022-11-19T06:46:32.285Z,94666.2
2022-11-19T06:47:34.777Z,94669.4
2022-11-19T06:48:36.696Z,94673.1
2022-11-19T06:49:38.351Z,94671.7
2022-11-19T06:50:40.603Z,94676.8
2022-11-19T06:51:42.815Z,94674.1
2022-11-19T06:52:45.301Z,94674.1
2022-11-19T06:53:47.779Z,94677.8
2022-11-19T06:54:49.484Z,94681.9
2022-11-19T06:55:51.963Z,94678.1
2022-11-19T06:56:54.459Z,94681.7
2022-11-19T06:57:56.934Z,94678.6
2022-11-19T06:58:59.441Z,94683.3
2022-11-19T07:00:01.656Z,94686.6
2022-11-19T07:01:04.141Z,94686.6
2022-11-19T07:02:06.987Z,94683.2
2022-11-19T07:03:09.046Z,94689.5
2022-11-19T07:04:11.514Z,94690.5
2022-11-19T07:05:13.991Z,94688.6
2022-11-19T07:06:16.532Z,94690.5
2022-11-19T07:07:19.222Z,94693.4
2022-11-19T07:08:21.517Z,94694.7
2022-11-19T07:09:24.020Z,94693.7
2022-11-19T07:10:25.946Z,94691.4
2022-11-19T07:11:28.427Z,94692.6
2022-11-19T07:12:30.659Z,94692.4
2022-11-19T07:13:33.136Z,94693.6
2022-11-19T07:14:35.067Z,94693.5
2022-11-19T07:15:37.555Z,94697.8
2022-11-19T07:16:39.773Z,94700.4
2022-11-19T07:17:42.015Z,94700
2022-11-19T07:18:44.488Z,94698.1
2022-11-19T07:19:46.984Z,94696.2
2022-11-19T07:20:49.634Z,94699
2022-11-19T07:21:52.318Z,94700.6
2022-11-19T07:23:59.611Z,94699.8
2022-11-19T07:25:01.825Z,94699.1
2022-11-19T07:26:04.319Z,94703
2022-11-19T07:27:06.533Z,94703.9
2022-11-19T07:28:09.139Z,94705.6
2022-11-19T07:29:11.354Z,94700.9
2022-11-19T07:30:13.839Z,94699.4
2022-11-19T07:31:16.481Z,94704.2
2022-11-19T07:32:18.772Z,94703.6
2022-11-19T07:33:21.348Z,94707.7
2022-11-19T07:34:23.861Z,94707.5
2022-11-19T07:35:25.253Z,94705.8
2022-11-19T07:36:27.460Z,94707.4
2022-11-19T07:37:29.472Z,94711
2022-11-19T07:39:36.992Z,94710.9
2022-11-19T07:40:39.518Z,94715.3
2022-11-19T07:41:42.019Z,94716.8
2022-11-19T07:42:44.257Z,94714.7
2022-11-19T07:43:46.842Z,94718.6
2022-11-19T07:45:54.074Z,94717.3
2022-11-19T07:46:56.584Z,94720.9
2022-11-19T07:47:59.067Z,94718.4
2022-11-19T07:49:01.307Z,94721.6
2022-11-19T07:50:03.545Z,94724.3
2022-11-19T07:51:05.744Z,94722.5
2022-11-19T07:52:07.671Z,94722.1
2022-11-19T07:53:09.964Z,94725.9
2022-11-19T07:54:12.528Z,94724.3
2022-11-19T07:55:29.718Z,94722.6
2022-11-19T07:56:31.713Z,94725
2022-11-19T07:57:33.959Z,94723.8
2022-11-19T07:58:36.494Z,94724.6
2022-11-19T07:59:38.739Z,94729.1
2022-11-19T08:00:40.984Z,94720.7
2022-11-19T08:01:43.799Z,94722.5
2022-11-19T08:02:46.484Z,94718.5
2022-11-19T08:04:53.468Z,94717.8
2022-11-19T08:05:55.707Z,94720.5
2022-11-19T08:06:58.230Z,94720.3
2022-11-19T08:08:00.593Z,94721.5
2022-11-19T08:09:03.287Z,94723.3
2022-11-19T08:10:05.843Z,94717.9
2022-11-19T08:11:07.781Z,94720.5
2022-11-19T08:12:10.286Z,94722.3
2022-11-19T08:13:12.756Z,94717.8
2022-11-19T08:14:15.247Z,94722.8
2022-11-19T08:15:17.748Z,94721.1
2022-11-19T08:16:19.939Z,94723
2022-11-19T08:17:22.225Z,94726.5
2022-11-19T08:19:29.408Z,94729.2
2022-11-19T08:20:31.062Z,94728.8
2022-11-19T08:21:33.275Z,94731.6
2022-11-19T08:22:36.156Z,94735
2022-11-19T08:23:38.961Z,94733.2
2022-11-19T08:24:41.623Z,94734.2
2022-11-19T08:25:43.904Z,94735
2022-11-19T08:26:46.435Z,94734.5
2022-11-19T08:27:48.961Z,94732.9
2022-11-19T08:28:51.481Z,94735.1
2022-11-19T08:29:53.991Z,94734.5
2022-11-19T08:30:56.705Z,94730.1
2022-11-19T08:31:58.911Z,94734.9
2022-11-19T08:33:01.109Z,94734.3
2022-11-19T08:34:03.338Z,94736.8
2022-11-19T08:35:05.926Z,94738.4
2022-11-19T08:36:08.170Z,94733.9
2022-11-19T08:37:10.685Z,94731.4
2022-11-19T08:38:12.927Z,94731.4
2022-11-19T08:39:15.151Z,94730.8
2022-11-19T08:40:17.713Z,94729.4
2022-11-19T08:41:20.271Z,94726.7
2022-11-19T08:42:22.509Z,94730.6
2022-11-19T08:43:24.996Z,94727.9
2022-11-19T08:44:27.198Z,94726.7
2022-11-19T08:45:29.421Z,94727.3
2022-11-19T08:46:31.938Z,94728
2022-11-19T08:47:34.546Z,94725.5
2022-11-19T08:48:37.824Z,94730.8
2022-11-19T08:49:40.117Z,94728.8
2022-11-19T08:50:42.765Z,94734.3
2022-11-19T08:51:45.522Z,94731
2022-11-19T08:52:47.905Z,94729.2
2022-11-19T08:53:50.486Z,94735
2022-11-19T08:54:52.533Z,94732.8
2022-11-19T08:55:55.237Z,94731
2022-11-19T08:56:57.787Z,94732
2022-11-19T08:58:00.293Z,94733.9
2022-11-19T08:59:04.719Z,94730.7
2022-11-19T09:00:07.892Z,94734.4
2022-11-19T09:01:10.254Z,94732.2
2022-11-19T09:02:12.888Z,94739.3
2022-11-19T09:03:15.107Z,94740.2
2022-11-19T09:04:18.045Z,94736.1
2022-11-19T09:05:20.821Z,94738.5
2022-11-19T09:06:23.334Z,94747
2022-11-19T09:07:25.780Z,94740.2
2022-11-19T09:08:28.010Z,94738.7
2022-11-19T09:09:30.514Z,94739.5
2022-11-19T09:10:33.245Z,94741.3
2022-11-19T09:12:40.552Z,94740.3
2022-11-19T09:13:42.853Z,94739.8
2022-11-19T09:14:45.128Z,94740.1
2022-11-19T09:15:47.665Z,94740.8
2022-11-19T09:16:49.639Z,94743.8
2022-11-19T09:17:52.181Z,94742.3
2022-11-19T09:18:54.388Z,94743.4
2022-11-19T09:19:56.910Z,94740.4
2022-11-19T09:20:59.656Z,94746.1
2022-11-19T09:22:01.612Z,94748.4
2022-11-19T09:23:03.609Z,94751.1
2022-11-19T09:24:05.857Z,94748.9
2022-11-19T09:25:08.086Z,94749.3
2022-11-19T09:26:10.004Z,94743.1
2022-11-19T09:27:12.478Z,94750
2022-11-19T09:28:15.055Z,94747.3
2022-11-19T09:29:17.443Z,94749.8
2022-11-19T09:30:19.113Z,94753.1
2022-11-19T09:31:21.635Z,94754.4
2022-11-19T09:33:29.126Z,94755.1
2022-11-19T09:34:31.331Z,94758
2022-11-19T09:35:33.932Z,94756.2
2022-11-19T09:36:37.461Z,94760.2
2022-11-19T09:37:39.932Z,94759.4
2022-11-19T09:38:42.143Z,94767.8
2022-11-19T09:39:44.365Z,94760.3
2022-11-19T09:40:46.039Z,94764.5
2022-11-19T09:41:48.314Z,94762.3
2022-11-19T09:42:49.694Z,94764.9
2022-11-19T09:43:52.350Z,94771.5
2022-11-19T09:44:54.582Z,94762.7
2022-11-19T09:45:56.510Z,94759.8
2022-11-19T09:46:58.738Z,94773.7
2022-11-19T09:48:01.213Z,94774.2
2022-11-19T09:49:03.433Z,94775.1
2022-11-19T09:50:05.923Z,94772.4
2022-11-19T09:51:08.434Z,94776.9
2022-11-19T09:52:10.388Z,94777.6
2022-11-19T09:53:12.883Z,94780.9
2022-11-19T09:54:15.130Z,94786.1
2022-11-19T09:55:17.660Z,94785.7
2022-11-19T09:56:20.154Z,94779
2022-11-19T09:57:22.115Z,94784.1
2022-11-19T09:58:24.337Z,94778.6
2022-11-19T09:59:26.912Z,94783.7
2022-11-19T10:00:29.161Z,94782.6
2022-11-19T10:01:31.433Z,94783.3
2022-11-19T10:02:33.617Z,94784.4
2022-11-19T10:03:35.959Z,94783.7
2022-11-19T10:04:38.490Z,94784.2
2022-11-19T10:05:40.733Z,94785.6
2022-11-19T10:06:42.706Z,94780.6
2022-11-19T10:07:45.189Z,94778.4
2022-11-19T10:08:47.680Z,94778.4
2022-11-19T10:09:49.595Z,94775.9
2022-11-19T10:10:52.076Z,94777.1
2022-11-19T10:11:54.288Z,94778.9
2022-11-19T10:12:56.487Z,94776.9
2022-11-19T10:13:58.986Z,94781
2022-11-19T10:15:01.645Z,94776.9
2022-11-19T10:16:04.153Z,94773.7
2022-11-19T10:17:06.369Z,94778.5
2022-11-19T10:18:08.302Z,94768.5
2022-11-19T10:19:11.053Z,94769.4
2022-11-19T10:20:13.435Z,94774.3
2022-11-19T10:21:15.633Z,94771.7
2022-11-19T10:22:18.130Z,94769.8
2022-11-19T10:23:20.346Z,94771.3
2022-11-19T10:24:24.023Z,94778.5
2022-11-19T10:25:26.246Z,94775.4
2022-11-19T10:26:28.736Z,94775.1
2022-11-19T10:27:31.056Z,94776.2
2022-11-19T10:28:33.310Z,94770.7
2022-11-19T10:29:35.839Z,94773.2
2022-11-19T10:30:38.445Z,94771.7
2022-11-19T10:31:40.786Z,94771
2022-11-19T10:32:42.752Z,94765.2
2022-11-19T10:33:44.783Z,94772.4
2022-11-19T10:34:47.279Z,94770.7
2022-11-19T10:35:49.806Z,94770.9
2022-11-19T10:36:52.005Z,94773.3
2022-11-19T10:37:54.523Z,94767.8
2022-11-19T10:38:56.454Z,94768.9
2022-11-19T10:39:58.756Z,94770.8
2022-11-19T10:41:00.423Z,94766.7
2022-11-19T10:42:02.669Z,94769.1
2022-11-19T10:43:04.645Z,94765.7
2022-11-19T10:44:06.875Z,94763.2
2022-11-19T10:45:08.801Z,94766.7
2022-11-19T10:46:10.815Z,94762.8
2022-11-19T10:47:13.045Z,94766.2
2022-11-19T10:48:15.617Z,94765.8
2022-11-19T10:49:19.618Z,94763.3
2022-11-19T10:50:22.321Z,94765.9
2022-11-19T10:51:24.299Z,94766.4
2022-11-19T10:52:26.820Z,94761.6
2022-11-19T10:53:28.735Z,94762.4
2022-11-19T10:54:30.962Z,94759.2
2022-11-19T10:55:33.197Z,94759.5
2022-11-19T10:56:35.143Z,94759.8
2022-11-19T10:57:37.076Z,94757.5
2022-11-19T10:58:39.277Z,94754.8
2022-11-19T10:59:41.774Z,94749.7
2022-11-19T11:00:44.226Z,94754.5
2022-11-19T11:01:47.100Z,94754.1
2022-11-19T11:02:49.740Z,94754.8
2022-11-19T11:03:52.056Z,94751.7
2022-11-19T11:04:54.290Z,94748.6
2022-11-19T11:05:56.474Z,94747.7
2022-11-19T11:06:59.554Z,94747.7
2022-11-19T11:08:02.286Z,94745.1
2022-11-19T11:09:04.569Z,94747.2
2022-11-19T11:10:07.079Z,94742.1
2022-11-19T11:11:09.266Z,94740.2
2022-11-19T11:12:11.831Z,94737.7
2022-11-19T11:13:14.318Z,94734
2022-11-19T11:14:16.612Z,94735.1
2022-11-19T11:15:18.305Z,94735.5
2022-11-19T11:16:20.505Z,94728.1
2022-11-19T11:17:23.064Z,94728
2022-11-19T11:18:25.581Z,94727.9
2022-11-19T11:19:27.489Z,94729.1
2022-11-19T11:20:29.750Z,94733.1
2022-11-19T11:21:32.229Z,94734.3
2022-11-19T11:22:34.523Z,94739.7
2022-11-19T11:23:37.056Z,94741.2
2022-11-19T11:24:39.014Z,94733.5
2022-11-19T11:25:41.522Z,94738
2022-11-19T11:26:44.038Z,94739.2
2022-11-19T11:27:45.952Z,94741.1
2022-11-19T11:28:47.896Z,94737.5
2022-11-19T11:29:50.092Z,94737
2022-11-19T11:30:52.582Z,94737.6
2022-11-19T11:31:55.080Z,94737.7
2022-11-19T11:32:57.362Z,94735.2
2022-11-19T11:33:59.894Z,94737
2022-11-19T11:36:07.460Z,94739.9
2022-11-19T11:37:09.707Z,94742.6
2022-11-19T11:38:12.220Z,94735
2022-11-19T11:39:14.737Z,94737.5
2022-11-19T11:40:17.225Z,94734.8
2022-11-19T11:42:24.432Z,94740.1
2022-11-19T11:43:26.936Z,94738
2022-11-19T11:44:29.425Z,94736.1
2022-11-19T11:45:31.666Z,94735.5
2022-11-19T11:46:33.614Z,94736.4
2022-11-19T11:47:35.855Z,94731
2022-11-19T11:48:38.512Z,94731.5
2022-11-19T11:49:41.026Z,94732.9
2022-11-19T11:50:43.511Z,94733.4
2022-11-19T11:51:45.733Z,94728.4
2022-11-19T11:52:47.950Z,94726.1
2022-11-19T11:53:50.488Z,94723.1
2022-11-19T11:54:52.706Z,94727
2022-11-19T11:55:55.227Z,94720.5
2022-11-19T11:56:57.742Z,94712.3
2022-11-19T11:58:00.254Z,94720.2
2022-11-19T11:59:02.797Z,94717.5
2022-11-19T12:00:05.042Z,94715.5
2022-11-19T12:02:14.630Z,94709.5
2022-11-19T12:03:16.984Z,94707.4
2022-11-19T12:04:19.540Z,94708.6
2022-11-19T12:05:21.866Z,94701.6
2022-11-19T12:06:24.386Z,94698.2
2022-11-19T12:07:27.009Z,94701.9
2022-11-19T12:08:29.688Z,94700.5
2022-11-19T12:09:31.665Z,94701
2022-11-19T12:10:34.181Z,94698.4
2022-11-19T12:11:36.134Z,94698.2
2022-11-19T12:12:38.649Z,94713
2022-11-19T12:13:41.150Z,94701.5
2022-11-19T12:14:43.364Z,94709.7
2022-11-19T12:15:45.859Z,94707.8
2022-11-19T12:16:48.351Z,94707.8
2022-11-19T12:17:50.879Z,94706.8
2022-11-19T12:18:53.365Z,94706.6
2022-11-19T12:19:55.975Z,94698.7
2022-11-19T12:20:58.529Z,94693.8
2022-11-19T12:22:01.028Z,94694.8
2022-11-19T12:23:03.228Z,94697.3
2022-11-19T12:24:05.724Z,94696.2
2022-11-19T12:25:07.941Z,94700.6
2022-11-19T12:26:10.429Z,94694.3
2022-11-19T12:27:12.914Z,94695.6
2022-11-19T12:28:15.134Z,94696.8
2022-11-19T12:29:18.303Z,94695.4
2022-11-19T12:30:21.589Z,94698.9
2022-11-19T12:32:29.096Z,94698.2
2022-11-19T12:33:31.618Z,94701.3
2022-11-19T12:34:33.825Z,94699.7
2022-11-19T12:35:36.419Z,94700.3
2022-11-19T12:36:38.930Z,94704
2022-11-19T12:37:40.874Z,94704.9
2022-11-19T12:38:43.367Z,94704.5
2022-11-19T12:39:45.298Z,94707.8
2022-11-19T12:40:47.836Z,94703.4
2022-11-19T12:41:50.041Z,94705.4
2022-11-19T12:42:51.953Z,94706.5
2022-11-19T12:43:53.901Z,94708.3
2022-11-19T12:44:55.824Z,94711.2
2022-11-19T12:45:58.016Z,94713.3
2022-11-19T12:47:00.507Z,94710.6
2022-11-19T12:48:02.721Z,94711.3
2022-11-19T12:49:04.931Z,94709.2
2022-11-19T12:50:07.434Z,94712.7
2022-11-19T12:51:09.991Z,94711
2022-11-19T12:52:11.957Z,94711.7
2022-11-19T12:53:14.454Z,94711.9
2022-11-19T12:55:21.666Z,94711.7
2022-11-19T12:56:24.296Z,94712
2022-11-19T12:57:25.927Z,94717.3